Ayrshire, Iowa
Current Conditions -  °F | °C
As of 7:53 AM on Thursday 30 Oct 2014 (Local Time) from KSPW Reporting Station
Overcast Overcast  
Wind Chill:   Ceiling: 9500
Heat Index:   Visibility: 10mi
Dew Point:   Wind: 6mph
Humidity: 79%   Direction: 140°SE
Pressure: 29.99"   Gusts: NA
Location:  43.04°N, 94.83°W
Report Text: KSPW 301253Z AUTO 14005KT 10SM FEW080 OVC095 05/02 A2999 RMK AO2 SLP167 T00500017 TSNO
Loading
Personal Weather Stations






























Interactive Weather Map
Tropical Storm Tracking
New forecast layout! Learn more

10-Day Weather Forecast

Advertisements
Track Severe Weather on mobile